Time;durP1;ratioP1;P1;durP2;ratioP2;P2;SDS_P1;SDS_P2;PMS_P1;PMS_P2;Temp;Humidity;BMP_temperature;BMP_pressure;BME280_temperature;BME280_humidity;BME280_pressure;Samples;Min_cycle;Max_cycle;Signal;HPM_P1;HPM_P2
2023/09/02 00:00:26;;;;;;;;;;;22.20;1.00;;;;;;4990221;28;20276;-63
2023/09/02 00:02:53;;;;;;;;;;;22.20;1.00;;;;;;4992241;28;19937;-61
2023/09/02 00:05:20;;;;;;;;;;;22.20;1.00;;;;;;4987566;28;19933;-63
2023/09/02 00:07:46;;;;;;;;;;;22.20;1.00;;;;;;4972908;28;19926;-63
2023/09/02 00:10:13;;;;;;;;;;;22.20;1.00;;;;;;4973113;28;19926;-62
2023/09/02 00:12:40;;;;;;;;;;;22.20;1.00;;;;;;4972910;28;19930;-63
2023/09/02 00:15:07;;;;;;;;;;;22.20;1.00;;;;;;4972458;28;20329;-63
2023/09/02 00:17:37;;;;;;;;;;;22.20;1.00;;;;;;4973195;28;19926;-63
2023/09/02 00:20:05;;;;;;;;;;;22.20;1.00;;;;;;4973011;28;19926;-63
2023/09/02 00:22:32;;;;;;;;;;;22.20;1.00;;;;;;4974170;28;19930;-63
2023/09/02 00:24:59;;;;;;;;;;;22.20;1.00;;;;;;4975816;28;19926;-63
2023/09/02 00:27:26;;;;;;;;;;;22.20;1.00;;;;;;4976490;28;19933;-62
2023/09/02 00:29:52;;;;;;;;;;;22.20;1.00;;;;;;4976081;28;19926;-63
2023/09/02 00:32:19;;;;;;;;;;;22.20;1.00;;;;;;4958764;28;19949;-63
2023/09/02 00:34:46;;;;;;;;;;;22.20;1.00;;;;;;4958253;28;19926;-63
2023/09/02 00:37:13;;;;;;;;;;;22.20;1.00;;;;;;4976028;28;20369;-63
2023/09/02 00:39:40;;;;;;;;;;;22.20;1.00;;;;;;4958729;28;19926;-63
2023/09/02 00:42:09;;;;;;;;;;;22.20;1.00;;;;;;4976093;28;19973;-63
2023/09/02 00:44:36;;;;;;;;;;;22.20;1.00;;;;;;4967623;28;19930;-63
2023/09/02 00:47:03;;;;;;;;;;;22.20;1.00;;;;;;4974547;28;19935;-63
2023/09/02 00:49:33;;;;;;;;;;;22.20;1.00;;;;;;4962423;28;20207;-63
2023/09/02 00:52:00;;;;;;;;;;;22.20;1.00;;;;;;4975962;28;19926;-63
2023/09/02 00:54:26;;;;;;;;;;;22.20;1.00;;;;;;4958106;28;20382;-62
2023/09/02 00:56:53;;;;;;;;;;;22.20;1.00;;;;;;4958316;28;19961;-63
2023/09/02 00:59:20;;;;;;;;;;;22.20;1.00;;;;;;4958729;28;20012;-63
2023/09/02 01:01:47;;;;;;;;;;;22.20;1.00;;;;;;4975530;28;19926;-63
2023/09/02 01:04:14;;;;;;;;;;;22.20;1.00;;;;;;4975480;28;19953;-63
2023/09/02 01:06:41;;;;;;;;;;;22.20;1.00;;;;;;4958340;28;20379;-63
2023/09/02 01:09:10;;;;;;;;;;;22.20;1.00;;;;;;4953819;28;19966;-63
2023/09/02 01:11:36;;;;;;;;;;;22.10;1.00;;;;;;4939051;28;19962;-63
2023/09/02 01:14:03;;;;;;;;;;;22.20;1.00;;;;;;4975096;28;19926;-63
2023/09/02 01:16:31;;;;;;;;;;;22.20;1.00;;;;;;4974085;28;19943;-63
2023/09/02 01:18:58;;;;;;;;;;;22.10;1.00;;;;;;4975276;28;19965;-63
2023/09/02 01:21:31;;;;;;;;;;;22.10;1.00;;;;;;4975433;28;19969;-63
2023/09/02 01:24:01;;;;;;;;;;;22.10;1.00;;;;;;4975262;28;20441;-62
2023/09/02 01:26:47;;;;;;;;;;;22.10;1.00;;;;;;4974411;28;19973;-62
2023/09/02 01:29:18;;;;;;;;;;;22.10;1.00;;;;;;4969246;28;19956;-63
2023/09/02 01:31:46;;;;;;;;;;;22.10;1.00;;;;;;5007425;23;19961;-62
2023/09/02 01:34:15;;;;;;;;;;;22.10;1.00;;;;;;4993861;28;19957;-62
2023/09/02 01:36:42;;;;;;;;;;;22.10;1.00;;;;;;4978482;28;20409;-62
2023/09/02 01:39:09;;;;;;;;;;;22.10;1.00;;;;;;4957617;28;20275;-62
2023/09/02 01:41:36;;;;;;;;;;;22.10;1.00;;;;;;4975038;28;19926;-62
2023/09/02 01:44:04;;;;;;;;;;;22.10;1.00;;;;;;4957266;28;19930;-62
2023/09/02 01:46:30;;;;;;;;;;;22.10;1.00;;;;;;4975037;28;19930;-62
2023/09/02 01:48:58;;;;;;;;;;;22.10;1.00;;;;;;4957423;28;20406;-62
2023/09/02 01:51:25;;;;;;;;;;;22.10;1.00;;;;;;4957290;28;19976;-62
2023/09/02 01:53:52;;;;;;;;;;;22.10;1.00;;;;;;4956926;28;19933;-62
2023/09/02 01:56:19;;;;;;;;;;;22.10;1.00;;;;;;4957437;28;19953;-63
2023/09/02 01:58:45;;;;;;;;;;;22.10;1.00;;;;;;4957550;28;20283;-62
2023/09/02 02:01:12;;;;;;;;;;;22.10;1.00;;;;;;5192282;23;19930;-61
2023/09/02 02:03:44;;;;;;;;;;;22.10;1.00;;;;;;4956966;28;19930;-62
2023/09/02 02:06:12;;;;;;;;;;;22.10;1.00;;;;;;4957984;28;19927;-63
2023/09/02 02:08:39;;;;;;;;;;;22.10;1.00;;;;;;4973373;28;19980;-63
2023/09/02 02:11:06;;;;;;;;;;;22.10;1.00;;;;;;4974591;28;19926;-63
2023/09/02 02:13:33;;;;;;;;;;;22.10;1.00;;;;;;4972818;28;19933;-63
2023/09/02 02:16:00;;;;;;;;;;;22.10;1.00;;;;;;4972960;28;19927;-63
2023/09/02 02:18:27;;;;;;;;;;;22.10;1.00;;;;;;4973000;28;19926;-63
2023/09/02 02:20:56;;;;;;;;;;;22.10;1.00;;;;;;4972692;28;20012;-64
2023/09/02 02:23:23;;;;;;;;;;;22.10;1.00;;;;;;4972780;28;19981;-63
2023/09/02 02:25:50;;;;;;;;;;;22.10;1.00;;;;;;4972944;28;19926;-63
2023/09/02 02:28:17;;;;;;;;;;;22.10;1.00;;;;;;4971492;28;19937;-63
2023/09/02 02:30:44;;;;;;;;;;;22.10;1.00;;;;;;4969602;28;19932;-63
2023/09/02 02:33:10;;;;;;;;;;;22.10;1.00;;;;;;5098362;23;19930;-61
2023/09/02 02:35:37;;;;;;;;;;;22.10;1.00;;;;;;4966542;28;19926;-63
2023/09/02 02:38:04;;;;;;;;;;;22.10;1.00;;;;;;4954626;29;19930;-63
2023/09/02 02:40:31;;;;;;;;;;;22.10;1.00;;;;;;4937468;29;19965;-63
2023/09/02 02:42:57;;;;;;;;;;;22.00;1.00;;;;;;4936166;29;19966;-63
2023/09/02 02:45:24;;;;;;;;;;;22.10;1.00;;;;;;4953612;28;19930;-61
2023/09/02 02:47:51;;;;;;;;;;;22.10;1.00;;;;;;4935015;29;20045;-62
2023/09/02 02:50:18;;;;;;;;;;;22.10;1.00;;;;;;4954536;29;20342;-62
2023/09/02 02:52:45;;;;;;;;;;;22.00;1.00;;;;;;4934184;29;20402;-62
2023/09/02 02:55:12;;;;;;;;;;;22.00;1.00;;;;;;4952795;28;19941;-62
2023/09/02 02:57:39;;;;;;;;;;;22.00;1.00;;;;;;4953082;29;20338;-62
2023/09/02 03:00:11;;;;;;;;;;;22.00;1.00;;;;;;4952835;29;19974;-62
2023/09/02 03:02:38;;;;;;;;;;;22.00;1.00;;;;;;4953086;29;19952;-63
2023/09/02 03:05:05;;;;;;;;;;;22.00;1.00;;;;;;4998517;23;19934;-63
2023/09/02 03:07:33;;;;;;;;;;;22.00;1.00;;;;;;4973705;28;20417;-63
2023/09/02 03:10:00;;;;;;;;;;;22.00;1.00;;;;;;4972126;28;19988;-64
2023/09/02 03:12:29;;;;;;;;;;;22.00;1.00;;;;;;4972113;28;19933;-64
2023/09/02 03:14:57;;;;;;;;;;;22.00;1.00;;;;;;4965837;28;20259;-64
2023/09/02 03:17:23;;;;;;;;;;;22.00;1.00;;;;;;4973463;28;20271;-63
2023/09/02 03:19:51;;;;;;;;;;;22.00;1.00;;;;;;4955909;28;19926;-64
2023/09/02 03:22:19;;;;;;;;;;;22.00;1.00;;;;;;4956047;28;19927;-68
2023/09/02 03:24:52;;;;;;;;;;;22.00;1.00;;;;;;4955842;28;19985;-63
2023/09/02 03:27:20;;;;;;;;;;;22.00;1.00;;;;;;4956226;28;19939;-63
2023/09/02 03:29:50;;;;;;;;;;;22.00;1.00;;;;;;4956085;28;19949;-64
2023/09/02 03:32:18;;;;;;;;;;;22.00;1.00;;;;;;4955851;28;19927;-62
2023/09/02 03:34:45;;;;;;;;;;;22.00;1.00;;;;;;5068397;23;19929;-61
2023/09/02 03:37:11;;;;;;;;;;;22.00;1.00;;;;;;4990915;28;19984;-62
2023/09/02 03:39:38;;;;;;;;;;;22.00;1.00;;;;;;4992804;28;20021;-62
2023/09/02 03:42:05;;;;;;;;;;;22.00;1.00;;;;;;4991446;28;20000;-62
2023/09/02 03:44:32;;;;;;;;;;;22.00;1.00;;;;;;4992360;28;19929;-62
2023/09/02 03:46:59;;;;;;;;;;;22.00;1.00;;;;;;4991373;28;19961;-62
2023/09/02 03:49:26;;;;;;;;;;;22.00;1.00;;;;;;4991419;28;19961;-63
2023/09/02 03:51:53;;;;;;;;;;;22.00;1.00;;;;;;4991215;28;19925;-62
2023/09/02 03:54:22;;;;;;;;;;;22.00;1.00;;;;;;4990967;28;19929;-60
2023/09/02 03:56:49;;;;;;;;;;;22.00;1.00;;;;;;4992941;28;20389;-62
2023/09/02 03:59:16;;;;;;;;;;;22.00;1.00;;;;;;4995080;28;19926;-62
2023/09/02 04:01:43;;;;;;;;;;;22.00;1.00;;;;;;4994960;28;19934;-61
2023/09/02 04:04:09;;;;;;;;;;;21.90;1.00;;;;;;4996091;28;19926;-62
2023/09/02 04:06:40;;;;;;;;;;;22.00;1.00;;;;;;4996102;28;19930;-63
2023/09/02 04:09:07;;;;;;;;;;;22.00;1.00;;;;;;4995300;28;19969;-63
2023/09/02 04:11:34;;;;;;;;;;;22.00;1.00;;;;;;4998567;28;20336;-63
2023/09/02 04:14:02;;;;;;;;;;;22.00;1.00;;;;;;4997683;28;19926;-63
2023/09/02 04:16:28;;;;;;;;;;;21.90;1.00;;;;;;4994689;28;19933;-63
2023/09/02 04:18:56;;;;;;;;;;;21.90;1.00;;;;;;4994619;28;20441;-63
2023/09/02 04:21:23;;;;;;;;;;;21.90;1.00;;;;;;4994537;28;19933;-63
2023/09/02 04:23:50;;;;;;;;;;;21.90;1.00;;;;;;4994395;28;19957;-63
2023/09/02 04:26:18;;;;;;;;;;;21.90;1.00;;;;;;4994588;28;19964;-63
2023/09/02 04:28:45;;;;;;;;;;;21.90;1.00;;;;;;4994668;28;19926;-63
2023/09/02 04:31:16;;;;;;;;;;;21.90;1.00;;;;;;4994285;28;20012;-63
2023/09/02 04:33:43;;;;;;;;;;;21.90;1.00;;;;;;4993995;28;19926;-63
2023/09/02 04:36:12;;;;;;;;;;;21.90;1.00;;;;;;5370457;23;21025;-63
2023/09/02 04:38:41;;;;;;;;;;;21.90;1.00;;;;;;4957956;28;19926;-63
2023/09/02 04:41:08;;;;;;;;;;;21.90;1.00;;;;;;4974790;28;20017;-64
2023/09/02 04:43:37;;;;;;;;;;;21.90;1.00;;;;;;4954976;28;19930;-62
2023/09/02 04:46:04;;;;;;;;;;;21.90;1.00;;;;;;4959798;28;20017;-62
2023/09/02 04:48:36;;;;;;;;;;;21.90;1.00;;;;;;4954214;29;20025;-63
2023/09/02 04:51:07;;;;;;;;;;;21.90;1.00;;;;;;4970692;28;19970;-63
2023/09/02 04:53:36;;;;;;;;;;;21.90;1.00;;;;;;4954688;29;19927;-63
2023/09/02 04:56:07;;;;;;;;;;;21.90;1.00;;;;;;4954758;28;19958;-63
2023/09/02 04:58:35;;;;;;;;;;;21.90;1.00;;;;;;4956476;28;20275;-63
2023/09/02 05:01:09;;;;;;;;;;;21.90;1.00;;;;;;4970621;28;19926;-62
2023/09/02 05:03:38;;;;;;;;;;;21.90;1.00;;;;;;4962820;28;19936;-63
2023/09/02 05:06:05;;;;;;;;;;;21.90;1.00;;;;;;4970959;28;19981;-63
2023/09/02 05:08:34;;;;;;;;;;;21.90;1.00;;;;;;4954300;28;20272;-63
2023/09/02 05:11:03;;;;;;;;;;;21.90;1.00;;;;;;4954825;29;19934;-63
2023/09/02 05:13:30;;;;;;;;;;;21.90;1.00;;;;;;4954527;29;19927;-63
2023/09/02 05:15:57;;;;;;;;;;;21.90;1.00;;;;;;4970709;28;19930;-63
2023/09/02 05:18:24;;;;;;;;;;;21.90;1.00;;;;;;4970869;28;20275;-60
2023/09/02 05:20:55;;;;;;;;;;;21.90;1.00;;;;;;4954515;29;20375;-62
2023/09/02 05:23:23;;;;;;;;;;;21.90;1.00;;;;;;4935240;29;20405;-64
2023/09/02 05:25:55;;;;;;;;;;;21.90;1.00;;;;;;4962594;28;19933;-63
2023/09/02 05:28:23;;;;;;;;;;;21.90;1.00;;;;;;4954663;29;20208;-63
2023/09/02 05:30:52;;;;;;;;;;;21.90;1.00;;;;;;4970428;28;20379;-63
2023/09/02 05:33:18;;;;;;;;;;;21.90;1.00;;;;;;4955602;29;20001;-63
2023/09/02 05:35:46;;;;;;;;;;;21.80;1.00;;;;;;4955710;28;19945;-63
2023/09/02 05:38:13;;;;;;;;;;;21.80;1.00;;;;;;4955759;29;20037;-63
2023/09/02 05:40:43;;;;;;;;;;;21.80;1.00;;;;;;4955563;28;19972;-63
2023/09/02 05:43:09;;;;;;;;;;;21.80;1.00;;;;;;4955243;28;19958;-62
2023/09/02 05:45:36;;;;;;;;;;;21.80;1.00;;;;;;4955658;28;19962;-62
2023/09/02 05:48:03;;;;;;;;;;;21.80;1.00;;;;;;4955528;28;19927;-61
2023/09/02 05:50:31;;;;;;;;;;;21.80;1.00;;;;;;4955500;28;19933;-63
2023/09/02 05:52:58;;;;;;;;;;;21.80;1.00;;;;;;4955304;29;20406;-63
2023/09/02 05:55:25;;;;;;;;;;;21.80;1.00;;;;;;4969812;28;20610;-63
2023/09/02 05:57:51;;;;;;;;;;;21.80;1.00;;;;;;4955442;29;20346;-63
2023/09/02 06:00:18;;;;;;;;;;;21.80;1.00;;;;;;4953316;29;19927;-63
2023/09/02 06:02:45;;;;;;;;;;;21.80;1.00;;;;;;4952121;29;19927;-61
2023/09/02 06:05:12;;;;;;;;;;;21.80;1.00;;;;;;4947875;29;19934;-64
2023/09/02 06:07:38;;;;;;;;;;;21.80;1.00;;;;;;4954454;29;19981;-63
2023/09/02 06:10:05;;;;;;;;;;;21.80;1.00;;;;;;4993831;22;19929;-62
2023/09/02 06:12:32;;;;;;;;;;;21.70;1.00;;;;;;4973475;28;19992;-62
2023/09/02 06:15:00;;;;;;;;;;;21.80;1.00;;;;;;4969593;28;19926;-63
2023/09/02 06:17:30;;;;;;;;;;;21.70;1.00;;;;;;4966849;28;20337;-63
2023/09/02 06:19:58;;;;;;;;;;;21.70;1.00;;;;;;4974691;28;19984;-63
2023/09/02 06:22:25;;;;;;;;;;;21.70;1.00;;;;;;4967100;28;19926;-63
2023/09/02 06:24:54;;;;;;;;;;;21.70;1.00;;;;;;4972778;28;19941;-61
2023/09/02 06:27:20;;;;;;;;;;;21.70;1.00;;;;;;4969913;28;19926;-63
2023/09/02 06:29:47;;;;;;;;;;;21.70;1.00;;;;;;4972627;28;19926;-61
2023/09/02 06:32:14;;;;;;;;;;;21.70;1.00;;;;;;4974552;28;20358;-63
2023/09/02 06:34:41;;;;;;;;;;;21.70;1.00;;;;;;4966396;28;19926;-63
2023/09/02 06:37:07;;;;;;;;;;;21.70;1.00;;;;;;4973929;28;20029;-63
2023/09/02 06:39:43;;;;;;;;;;;21.70;1.00;;;;;;4974066;28;19926;-63
2023/09/02 06:42:10;;;;;;;;;;;21.60;1.00;;;;;;4973985;28;20453;-63
2023/09/02 06:44:37;;;;;;;;;;;21.70;1.00;;;;;;4956256;28;19966;-63
2023/09/02 06:47:04;;;;;;;;;;;21.70;1.00;;;;;;4973982;28;19949;-63
2023/09/02 06:49:32;;;;;;;;;;;21.60;1.00;;;;;;4974142;28;20341;-63
2023/09/02 06:51:59;;;;;;;;;;;21.70;1.00;;;;;;4974162;28;19953;-64
2023/09/02 06:54:25;;;;;;;;;;;21.70;1.00;;;;;;4969308;28;19934;-63
2023/09/02 06:56:52;;;;;;;;;;;21.70;1.00;;;;;;4971571;28;20482;-63
2023/09/02 06:59:19;;;;;;;;;;;21.70;1.00;;;;;;4970241;28;19953;-63
2023/09/02 07:01:45;;;;;;;;;;;21.70;1.00;;;;;;4973494;28;19926;-63
2023/09/02 07:04:12;;;;;;;;;;;21.70;1.00;;;;;;4973208;28;20020;-63
2023/09/02 07:06:39;;;;;;;;;;;21.70;1.00;;;;;;4973410;28;19977;-63
2023/09/02 07:09:06;;;;;;;;;;;21.70;1.00;;;;;;4973275;28;20418;-64
2023/09/02 07:11:32;;;;;;;;;;;21.70;1.00;;;;;;5229963;23;20391;-63
2023/09/02 07:14:02;;;;;;;;;;;21.70;1.00;;;;;;4991841;28;20295;-64
2023/09/02 07:16:29;;;;;;;;;;;21.70;1.00;;;;;;4992560;28;19948;-64
2023/09/02 07:18:57;;;;;;;;;;;21.70;1.00;;;;;;4992840;28;19925;-63
2023/09/02 07:21:24;;;;;;;;;;;21.60;1.00;;;;;;4992729;28;20022;-64
2023/09/02 07:23:51;;;;;;;;;;;21.70;1.00;;;;;;4992603;28;19932;-64
2023/09/02 07:26:21;;;;;;;;;;;21.70;1.00;;;;;;4992597;28;19926;-64
2023/09/02 07:28:48;;;;;;;;;;;21.70;1.00;;;;;;4992880;28;19969;-62
2023/09/02 07:31:14;;;;;;;;;;;21.70;1.00;;;;;;4992601;28;20296;-63
2023/09/02 07:33:41;;;;;;;;;;;21.70;1.00;;;;;;4995956;28;19929;-63
2023/09/02 07:36:09;;;;;;;;;;;21.70;1.00;;;;;;4996737;28;19969;-63
2023/09/02 07:38:37;;;;;;;;;;;21.70;1.00;;;;;;4996771;28;19926;-63
2023/09/02 07:41:07;;;;;;;;;;;21.70;1.00;;;;;;4996904;28;19933;-65
2023/09/02 07:43:34;;;;;;;;;;;21.70;1.00;;;;;;5052783;22;19926;-64
2023/09/02 07:46:01;;;;;;;;;;;21.70;1.00;;;;;;4977107;28;20287;-64
2023/09/02 07:48:28;;;;;;;;;;;21.70;1.00;;;;;;4976968;28;19926;-64
2023/09/02 07:50:55;;;;;;;;;;;21.70;1.00;;;;;;4976931;28;19926;-62
2023/09/02 07:53:22;;;;;;;;;;;21.80;1.00;;;;;;4960525;28;20303;-63
2023/09/02 07:55:49;;;;;;;;;;;21.80;1.00;;;;;;4965151;28;19965;-63
2023/09/02 07:58:15;;;;;;;;;;;21.80;1.00;;;;;;4957448;28;20013;-62
2023/09/02 08:00:42;;;;;;;;;;;21.80;1.00;;;;;;4965291;28;19937;-63
2023/09/02 08:03:09;;;;;;;;;;;21.80;1.00;;;;;;4964871;28;20393;-63
2023/09/02 08:05:37;;;;;;;;;;;21.80;1.00;;;;;;4957222;28;20375;-63
2023/09/02 08:08:03;;;;;;;;;;;21.80;1.00;;;;;;4957207;28;20339;-63
2023/09/02 08:10:30;;;;;;;;;;;21.80;1.00;;;;;;4957465;28;19927;-63
2023/09/02 08:12:57;;;;;;;;;;;21.80;1.00;;;;;;4957178;28;19930;-63
2023/09/02 08:15:24;;;;;;;;;;;21.90;1.00;;;;;;4957471;28;19927;-62
2023/09/02 08:17:51;;;;;;;;;;;21.90;1.00;;;;;;4957214;28;19933;-63
2023/09/02 08:20:18;;;;;;;;;;;21.90;1.00;;;;;;4957124;28;19955;-62
2023/09/02 08:22:45;;;;;;;;;;;21.90;1.00;;;;;;4957182;28;19949;-62
2023/09/02 08:25:11;;;;;;;;;;;21.90;1.00;;;;;;4954081;28;19961;-63
2023/09/02 08:27:42;;;;;;;;;;;21.90;1.00;;;;;;4955709;28;19930;-63
2023/09/02 08:30:09;;;;;;;;;;;21.90;1.00;;;;;;4961234;28;19933;-62
2023/09/02 08:32:36;;;;;;;;;;;22.00;1.00;;;;;;4960098;28;20348;-63
2023/09/02 08:35:03;;;;;;;;;;;22.00;1.00;;;;;;4968099;28;19927;-63
2023/09/02 08:37:31;;;;;;;;;;;22.00;1.00;;;;;;4964689;28;19933;-63
2023/09/02 08:40:01;;;;;;;;;;;22.00;1.00;;;;;;4949065;28;19938;-63
2023/09/02 08:42:36;;;;;;;;;;;22.00;1.00;;;;;;4952655;28;19930;-63
2023/09/02 08:45:08;;;;;;;;;;;22.00;1.00;;;;;;4959464;28;19926;-63
2023/09/02 08:47:37;;;;;;;;;;;22.00;1.00;;;;;;4945513;28;20434;-62
2023/09/02 08:50:05;;;;;;;;;;;22.00;1.00;;;;;;4970567;28;19933;-63
2023/09/02 08:52:32;;;;;;;;;;;22.00;1.00;;;;;;4953477;28;20017;-63
2023/09/02 08:55:00;;;;;;;;;;;22.10;1.00;;;;;;4958504;28;20358;-63
2023/09/02 08:57:27;;;;;;;;;;;22.10;1.00;;;;;;4961797;28;19926;-63
2023/09/02 08:59:54;;;;;;;;;;;22.10;1.00;;;;;;4948812;28;19973;-63
2023/09/02 09:02:21;;;;;;;;;;;22.10;1.00;;;;;;4944598;28;19934;-61
2023/09/02 09:04:48;;;;;;;;;;;22.10;1.00;;;;;;4942660;28;20030;-62
2023/09/02 09:07:17;;;;;;;;;;;22.10;1.00;;;;;;4951870;28;20143;-61
2023/09/02 09:09:45;;;;;;;;;;;22.10;1.00;;;;;;4953397;28;19934;-61
2023/09/02 09:12:12;;;;;;;;;;;22.10;1.00;;;;;;4953895;28;19934;-61
2023/09/02 09:17:34;;;;;;;;;;;22.20;1.00;;;;;;5418974;23;19953;-62
2023/09/02 09:20:01;;;;;;;;;;;22.20;1.00;;;;;;4993908;28;20428;-61
2023/09/02 09:22:28;;;;;;;;;;;22.20;1.00;;;;;;4986407;28;19934;-61
2023/09/02 09:24:55;;;;;;;;;;;22.20;1.00;;;;;;4992863;28;19933;-61
2023/09/02 09:27:21;;;;;;;;;;;22.20;1.00;;;;;;4962945;28;19926;-61
2023/09/02 09:29:48;;;;;;;;;;;22.20;1.00;;;;;;4971156;28;19926;-61
2023/09/02 09:32:16;;;;;;;;;;;22.20;1.00;;;;;;4968453;28;19969;-63
2023/09/02 09:34:43;;;;;;;;;;;22.30;1.00;;;;;;4994271;28;20440;-62
2023/09/02 09:37:10;;;;;;;;;;;22.30;1.00;;;;;;4994336;28;19933;-62
2023/09/02 09:39:47;;;;;;;;;;;22.20;1.00;;;;;;4994415;28;19973;-62
2023/09/02 09:42:15;;;;;;;;;;;22.30;1.00;;;;;;4994309;28;19992;-62
2023/09/02 09:44:55;;;;;;;;;;;22.20;1.00;;;;;;4993972;28;20013;-62
2023/09/02 09:47:22;;;;;;;;;;;22.30;1.00;;;;;;4993257;28;19926;-63
2023/09/02 09:49:50;;;;;;;;;;;22.30;1.00;;;;;;5367523;23;19926;-63
2023/09/02 09:52:18;;;;;;;;;;;22.30;1.00;;;;;;4967388;28;20298;-64
2023/09/02 09:54:47;;;;;;;;;;;22.30;1.00;;;;;;4974105;28;19933;-62
2023/09/02 09:57:29;;;;;;;;;;;22.30;1.00;;;;;;4968641;28;19927;-62
2023/09/02 09:59:56;;;;;;;;;;;22.30;1.00;;;;;;4967539;28;19930;-62
2023/09/02 10:02:23;;;;;;;;;;;22.30;1.00;;;;;;4974497;28;19930;-62
2023/09/02 10:04:52;;;;;;;;;;;22.40;1.00;;;;;;4972700;28;20020;-62
2023/09/02 10:07:23;;;;;;;;;;;22.40;1.00;;;;;;4969946;28;19926;-61
2023/09/02 10:09:52;;;;;;;;;;;22.30;1.00;;;;;;4966841;28;19981;-63
2023/09/02 10:12:19;;;;;;;;;;;22.40;1.00;;;;;;4974542;28;19949;-62
2023/09/02 10:14:47;;;;;;;;;;;22.40;1.00;;;;;;4974324;28;20362;-62
2023/09/02 10:17:14;;;;;;;;;;;22.40;1.00;;;;;;4974085;28;19926;-62
2023/09/02 10:19:41;;;;;;;;;;;22.40;1.00;;;;;;4972927;28;19962;-62
2023/09/02 10:22:08;;;;;;;;;;;22.40;1.00;;;;;;5294201;23;20301;-61
2023/09/02 10:24:39;;;;;;;;;;;22.40;1.00;;;;;;4992713;28;19926;-61
2023/09/02 10:27:11;;;;;;;;;;;22.40;1.00;;;;;;4993593;28;19926;-61
2023/09/02 10:29:42;;;;;;;;;;;22.40;1.00;;;;;;4992115;28;19964;-60
2023/09/02 10:32:12;;;;;;;;;;;22.40;1.00;;;;;;4989679;28;20370;-61
2023/09/02 10:34:44;;;;;;;;;;;22.40;1.00;;;;;;4993260;28;19926;-62
2023/09/02 10:37:13;;;;;;;;;;;22.40;1.00;;;;;;4993214;28;19994;-62
2023/09/02 10:39:42;;;;;;;;;;;22.40;1.00;;;;;;4993052;28;20017;-62
2023/09/02 10:42:09;;;;;;;;;;;22.40;1.00;;;;;;4993477;28;19926;-61
2023/09/02 10:44:36;;;;;;;;;;;22.40;1.00;;;;;;4992951;28;19953;-61
2023/09/02 10:47:03;;;;;;;;;;;22.40;1.00;;;;;;4993128;28;20016;-61
2023/09/02 10:49:30;;;;;;;;;;;22.40;1.00;;;;;;4992953;28;19933;-62
2023/09/02 10:51:57;;;;;;;;;;;22.40;1.00;;;;;;4993046;28;20354;-62
2023/09/02 10:54:24;;;;;;;;;;;22.40;1.00;;;;;;4992799;28;20361;-61
2023/09/02 10:56:51;;;;;;;;;;;22.40;1.00;;;;;;4992804;28;19980;-61
2023/09/02 10:59:27;;;;;;;;;;;22.40;1.00;;;;;;4993526;28;20290;-62
2023/09/02 11:01:54;;;;;;;;;;;22.40;1.00;;;;;;4992882;28;20393;-62
2023/09/02 11:04:39;;;;;;;;;;;22.40;1.00;;;;;;4992774;28;19961;-62
2023/09/02 11:07:24;;;;;;;;;;;22.40;1.00;;;;;;4992200;28;19933;-62
2023/09/02 11:09:52;;;;;;;;;;;22.40;1.00;;;;;;4992708;28;19926;-58
2023/09/02 11:12:19;;;;;;;;;;;22.40;1.00;;;;;;4992879;28;19969;-62
2023/09/02 11:15:05;;;;;;;;;;;22.50;1.00;;;;;;4992657;28;19926;-62
2023/09/02 11:17:32;;;;;;;;;;;22.50;1.00;;;;;;4992900;28;20473;-63
2023/09/02 11:19:59;;;;;;;;;;;22.40;1.00;;;;;;4992813;28;19929;-61
2023/09/02 11:22:44;;;;;;;;;;;22.50;1.00;;;;;;4992634;28;19932;-62
2023/09/02 11:25:22;;;;;;;;;;;22.40;1.00;;;;;;5061875;23;20021;-62
2023/09/02 11:27:48;;;;;;;;;;;22.50;1.00;;;;;;4992729;28;20353;-62
2023/09/02 11:30:15;;;;;;;;;;;22.50;1.00;;;;;;4992626;28;20416;-62
2023/09/02 11:32:45;;;;;;;;;;;22.50;1.00;;;;;;4992511;28;20357;-62
2023/09/02 11:35:14;;;;;;;;;;;22.50;1.00;;;;;;4992479;28;19996;-62
2023/09/02 11:37:41;;;;;;;;;;;22.50;1.00;;;;;;4992577;28;20029;-62
2023/09/02 11:40:14;;;;;;;;;;;22.50;1.00;;;;;;4992547;28;19926;-62
2023/09/02 11:42:47;;;;;;;;;;;22.50;1.00;;;;;;4992055;28;20377;-61
2023/09/02 11:45:14;;;;;;;;;;;22.50;1.00;;;;;;4992504;28;19957;-62
2023/09/02 11:47:41;;;;;;;;;;;22.50;1.00;;;;;;4992594;28;19925;-60
2023/09/02 11:50:16;;;;;;;;;;;22.50;1.00;;;;;;4992136;28;20000;-61
2023/09/02 11:52:43;;;;;;;;;;;22.40;1.00;;;;;;4992162;28;19939;-62
2023/09/02 11:55:16;;;;;;;;;;;22.40;1.00;;;;;;4992385;28;20021;-60
2023/09/02 11:57:43;;;;;;;;;;;22.50;1.00;;;;;;4992431;28;19930;-61
2023/09/02 12:00:14;;;;;;;;;;;22.50;1.00;;;;;;4992354;28;20082;-61
2023/09/02 12:02:41;;;;;;;;;;;22.40;1.00;;;;;;4992306;28;19957;-62
2023/09/02 12:05:08;;;;;;;;;;;22.50;1.00;;;;;;4992162;28;19930;-62
2023/09/02 12:07:36;;;;;;;;;;;22.50;1.00;;;;;;4992361;28;20408;-62
2023/09/02 12:10:07;;;;;;;;;;;22.50;1.00;;;;;;4992396;28;19930;-62
2023/09/02 12:12:35;;;;;;;;;;;22.50;1.00;;;;;;4992305;28;19925;-62
2023/09/02 12:15:03;;;;;;;;;;;22.50;1.00;;;;;;4992078;28;19949;-62
2023/09/02 12:17:30;;;;;;;;;;;22.50;1.00;;;;;;4992325;28;19936;-62
2023/09/02 12:19:58;;;;;;;;;;;22.50;1.00;;;;;;4995827;28;19930;-62
2023/09/02 12:22:25;;;;;;;;;;;22.40;1.00;;;;;;4996292;28;19965;-62
2023/09/02 12:27:40;;;;;;;;;;;22.50;1.00;;;;;;5397226;23;19932;-62
2023/09/02 12:30:10;;;;;;;;;;;22.50;1.00;;;;;;4995456;28;19951;-62
2023/09/02 12:32:37;;;;;;;;;;;22.50;1.00;;;;;;4995475;28;19957;-62
2023/09/02 12:35:08;;;;;;;;;;;22.50;1.00;;;;;;4985277;28;20387;-62
2023/09/02 12:37:35;;;;;;;;;;;22.50;1.00;;;;;;4976087;28;19937;-62
2023/09/02 12:40:11;;;;;;;;;;;22.50;1.00;;;;;;4976504;28;20265;-64
2023/09/02 12:42:39;;;;;;;;;;;22.50;1.00;;;;;;4976100;28;19933;-63
2023/09/02 12:45:08;;;;;;;;;;;22.50;1.00;;;;;;4967860;28;19932;-63
2023/09/02 12:47:35;;;;;;;;;;;22.50;1.00;;;;;;4976092;28;20456;-63
2023/09/02 12:50:02;;;;;;;;;;;22.50;1.00;;;;;;4960243;28;20295;-63
2023/09/02 12:52:30;;;;;;;;;;;22.50;1.00;;;;;;4975903;28;20297;-62
2023/09/02 12:54:58;;;;;;;;;;;22.50;1.00;;;;;;4975528;28;20037;-61
2023/09/02 12:57:28;;;;;;;;;;;22.50;1.00;;;;;;4975877;28;20390;-61
2023/09/02 13:00:20;;;;;;;;;;;22.50;1.00;;;;;;5103587;23;20408;-62
2023/09/02 13:02:47;;;;;;;;;;;22.50;1.00;;;;;;4995196;28;19926;-63
2023/09/02 13:05:14;;;;;;;;;;;22.50;1.00;;;;;;4990746;28;20417;-61
2023/09/02 13:07:41;;;;;;;;;;;22.50;1.00;;;;;;4975461;28;19930;-62
2023/09/02 13:10:09;;;;;;;;;;;22.50;1.00;;;;;;4975384;28;20279;-62
2023/09/02 13:12:37;;;;;;;;;;;22.50;1.00;;;;;;4975481;28;19981;-60
2023/09/02 13:15:04;;;;;;;;;;;22.50;1.00;;;;;;4957957;28;19932;-62
2023/09/02 13:17:31;;;;;;;;;;;22.50;1.00;;;;;;4975173;28;19993;-62
2023/09/02 13:19:57;;;;;;;;;;;22.50;1.00;;;;;;4975248;28;20446;-62
2023/09/02 13:22:24;;;;;;;;;;;22.50;1.00;;;;;;4975216;28;20445;-61
2023/09/02 13:24:51;;;;;;;;;;;22.50;1.00;;;;;;4972849;28;19933;-62
2023/09/02 13:27:18;;;;;;;;;;;22.50;1.00;;;;;;4968965;28;19927;-59
2023/09/02 13:29:45;;;;;;;;;;;22.50;1.00;;;;;;4974230;28;19934;-61
2023/09/02 13:32:17;;;;;;;;;;;22.60;1.00;;;;;;5266513;23;19932;-62
2023/09/02 13:34:44;;;;;;;;;;;22.50;1.00;;;;;;4974186;28;19934;-62
2023/09/02 13:37:10;;;;;;;;;;;22.60;1.00;;;;;;4955785;29;20339;-61
2023/09/02 13:39:37;;;;;;;;;;;22.60;1.00;;;;;;4955520;29;19972;-61
2023/09/02 13:42:08;;;;;;;;;;;22.60;1.00;;;;;;4955412;29;20030;-61
2023/09/02 13:44:35;;;;;;;;;;;22.60;1.00;;;;;;4962299;28;19926;-61
2023/09/02 13:47:05;;;;;;;;;;;22.60;1.00;;;;;;4974433;28;19926;-60
2023/09/02 13:49:33;;;;;;;;;;;22.60;1.00;;;;;;4974751;28;20386;-61
2023/09/02 13:52:00;;;;;;;;;;;22.60;1.00;;;;;;4969508;28;19934;-61
2023/09/02 13:54:27;;;;;;;;;;;22.60;1.00;;;;;;4951951;28;20057;-59
2023/09/02 13:56:54;;;;;;;;;;;22.60;1.00;;;;;;4949223;28;20417;-62
2023/09/02 13:59:22;;;;;;;;;;;22.60;1.00;;;;;;4958454;28;19933;-60
2023/09/02 14:01:48;;;;;;;;;;;22.60;1.00;;;;;;4963972;28;19934;-61
2023/09/02 14:04:16;;;;;;;;;;;22.60;1.00;;;;;;5151944;23;19929;-61
2023/09/02 14:06:43;;;;;;;;;;;22.60;1.00;;;;;;4989342;28;19925;-61
2023/09/02 14:09:22;;;;;;;;;;;22.60;1.00;;;;;;4985855;28;19975;-60
2023/09/02 14:11:49;;;;;;;;;;;22.60;1.00;;;;;;4993602;28;19925;-61
2023/09/02 14:14:20;;;;;;;;;;;22.60;1.00;;;;;;4993628;28;19972;-62
2023/09/02 14:16:50;;;;;;;;;;;22.60;1.00;;;;;;4993522;28;19980;-62
2023/09/02 14:19:17;;;;;;;;;;;22.60;1.00;;;;;;4993479;28;20423;-62
2023/09/02 14:21:44;;;;;;;;;;;22.60;1.00;;;;;;4992209;28;19969;-59
2023/09/02 14:24:11;;;;;;;;;;;22.60;1.00;;;;;;4992972;28;19932;-61
2023/09/02 14:26:41;;;;;;;;;;;22.60;1.00;;;;;;4993510;28;19947;-61
2023/09/02 14:29:08;;;;;;;;;;;22.60;1.00;;;;;;4993380;28;19932;-60
2023/09/02 14:31:34;;;;;;;;;;;22.60;1.00;;;;;;4993642;28;20305;-61
2023/09/02 14:34:01;;;;;;;;;;;22.60;1.00;;;;;;5006173;23;19913;-61
2023/09/02 14:36:28;;;;;;;;;;;22.60;1.00;;;;;;4973779;28;20024;-61
2023/09/02 14:38:55;;;;;;;;;;;22.60;1.00;;;;;;4973881;28;19927;-61
2023/09/02 14:41:21;;;;;;;;;;;22.60;1.00;;;;;;4973830;28;19933;-62